Airfield :
LOGIN :

Register | Disclaimer

   EN    FR    IT 

 










Legend :    VFR   Marginal VFR   IFR   Intensive IFR   Very Intensive IFR
Visi :
Ceiling :
>= 8 km
>= 3000ft
5 to 8 km
1000 to 3000 ft
1500m to 5 km
500 to 1000 ft
800 to 1500m
200 to 500 ft
< 800m
< 200 ft
Symbols :   Thunderstorms  Fog  Heavy snow  Heavy precipitations  Wind > 20 kt
SIGMETs :     Misc.  Thunderstorms  Icing  Turbulence  Mountain Waves  Volcanic Ashes







- Airport Elevation : 408 ft
- IATA code : SOB


LHSM - Sarmellek Balaton

CURRENT METAR :
  • 241315Z 34001KT 9999 SCT036TCU BKN070 19/10 Q1021 NOSIG

EXPIRED METARs :
  • 241245Z 04005KT 9999 BKN033TCU 18/11 Q1021 NOSIG
  • 241215Z 29004KT 9999 BKN043TCU 19/11 Q1021 NOSIG
  • 241145Z 31004KT 9999 BKN046TCU 19/11 Q1021 NOSIG
  • 241115Z 32004KT 9999 BKN033TCU 18/11 Q1021 NOSIG
  • 241045Z 29003KT 9999 BKN030TCU 18/12 Q1021 NOSIG

TAF TAF LHSM
Valid from the 24 at 12:00 until the 24 at 21:00 UTC


241115Z 2412/2421 28004KT 9999 BKN030
BECMG 2415/2417 CAVOK
No reported NOTAMs for that airfield.



MET'MAP, your aeronautical weather chart ! - Copyright ORBIFLY December 2007 - Disclaimer

ORBIFLY MET'MAP TEAM :

Programming & Development : Alexandra Zaïnal
Concept & Development : Baudouin d'Aumeries
Co-Development & Prog : Marc-Olivier Méhu
Technical & hardware support : Manuel Goepfert

Contact : metmap@orbifly.com




SOURCES & CREDITS :

   NOAA